createdAt,value
2022-09-20T00:01:36.473Z,98079.88
2022-09-20T00:04:06.961Z,98076.19
2022-09-20T00:06:35.608Z,98069.34
2022-09-20T00:09:05.227Z,98069.19
2022-09-20T00:11:35.190Z,98075.38
2022-09-20T00:14:08.452Z,98070.97
2022-09-20T00:16:40.391Z,98081.00
2022-09-20T00:19:10.069Z,98079.53
2022-09-20T00:21:38.060Z,98077.69
2022-09-20T00:24:06.434Z,98080.16
2022-09-20T00:26:34.185Z,98071.50
2022-09-20T00:29:02.102Z,98073.00
2022-09-20T00:31:29.969Z,98084.53
2022-09-20T00:34:17.459Z,98076.19
2022-09-20T00:36:45.320Z,98078.84
2022-09-20T00:39:15.473Z,98069.16
2022-09-20T00:41:43.484Z,98072.66
2022-09-20T00:44:45.962Z,98075.66
2022-09-20T00:47:43.182Z,98070.69
2022-09-20T00:50:28.664Z,98082.84
2022-09-20T00:53:24.657Z,98077.19
2022-09-20T00:56:29.048Z,98083.53
2022-09-20T00:59:15.977Z,98071.81
2022-09-20T01:01:46.470Z,98075.69
2022-09-20T01:04:16.727Z,98077.31
2022-09-20T01:06:46.265Z,98078.16
2022-09-20T01:09:15.337Z,98075.00
2022-09-20T01:11:43.323Z,98077.69
2022-09-20T01:14:15.767Z,98072.00
2022-09-20T01:16:43.807Z,98079.69
2022-09-20T01:20:07.936Z,98075.34
2022-09-20T01:23:08.744Z,98072.00
2022-09-20T01:26:03.300Z,98067.16
2022-09-20T01:28:31.514Z,98071.00
2022-09-20T01:31:24.068Z,98069.00
2022-09-20T01:34:10.435Z,98066.31
2022-09-20T01:37:03.457Z,98069.00
2022-09-20T01:39:49.155Z,98063.97
2022-09-20T01:42:17.266Z,98064.50
2022-09-20T01:45:14.965Z,98066.13
2022-09-20T01:47:54.280Z,98058.63
2022-09-20T01:50:50.578Z,98054.94
2022-09-20T01:54:01.014Z,98053.97
2022-09-20T01:57:05.813Z,98063.28
2022-09-20T01:59:52.185Z,98057.47
2022-09-20T02:03:09.485Z,98064.13
2022-09-20T02:06:39.288Z,98073.44
2022-09-20T02:09:16.126Z,98071.81
2022-09-20T02:12:22.413Z,98071.13
2022-09-20T02:15:10.120Z,98067.47
2022-09-20T02:18:01.480Z,98069.31
2022-09-20T02:21:05.639Z,98072.00
2022-09-20T02:23:56.880Z,98061.47
2022-09-20T02:27:13.228Z,98057.63
2022-09-20T02:29:52.824Z,98070.66
2022-09-20T02:32:31.675Z,98076.19
2022-09-20T02:35:31.026Z,98071.00
2022-09-20T02:38:10.512Z,98065.16
2022-09-20T02:41:03.450Z,98057.78
2022-09-20T02:43:46.453Z,98064.66
2022-09-20T02:46:35.137Z,98065.47
2022-09-20T02:49:26.708Z,98065.63
2022-09-20T02:52:03.170Z,98056.13
2022-09-20T02:54:46.151Z,98059.97
2022-09-20T02:58:04.345Z,98062.63
2022-09-20T03:01:11.644Z,98066.50
2022-09-20T03:03:56.466Z,98061.47
2022-09-20T03:06:57.894Z,98065.66
2022-09-20T03:09:53.748Z,98073.69
2022-09-20T03:12:45.081Z,98078.00
2022-09-20T03:15:39.284Z,98080.13
2022-09-20T03:18:16.461Z,98085.34
2022-09-20T03:21:01.861Z,98085.66
2022-09-20T03:24:22.662Z,98087.16
2022-09-20T03:26:58.855Z,98090.00
2022-09-20T03:30:06.581Z,98083.97
2022-09-20T03:33:01.576Z,98087.00
2022-09-20T03:36:09.121Z,98089.38
2022-09-20T03:38:57.593Z,98084.19
2022-09-20T03:41:55.472Z,98087.16
2022-09-20T03:45:09.117Z,98087.88
2022-09-20T03:48:06.605Z,98087.53
2022-09-20T03:50:52.676Z,98085.00
2022-09-20T03:53:26.294Z,98094.19
2022-09-20T03:56:54.892Z,98085.88
2022-09-20T04:00:03.544Z,98098.06
2022-09-20T04:03:16.776Z,98095.06
2022-09-20T04:06:31.906Z,98101.41
2022-09-20T04:09:33.855Z,98104.72
2022-09-20T04:12:36.384Z,98107.91
2022-09-20T04:15:12.890Z,98102.72
2022-09-20T04:17:58.980Z,98103.19
2022-09-20T04:20:50.402Z,98109.06
2022-09-20T04:23:56.422Z,98110.22
2022-09-20T04:26:29.839Z,98111.22
2022-09-20T04:29:14.459Z,98108.06
2022-09-20T04:32:10.390Z,98106.38
2022-09-20T04:35:19.710Z,98108.75
2022-09-20T04:37:48.278Z,98111.38
2022-09-20T04:40:23.100Z,98112.75
2022-09-20T04:43:08.700Z,98109.22
2022-09-20T04:46:24.435Z,98106.19
2022-09-20T04:49:06.958Z,98113.06
2022-09-20T04:52:04.128Z,98115.72
2022-09-20T04:55:01.457Z,98117.69
2022-09-20T04:57:41.403Z,98121.53
2022-09-20T05:00:20.478Z,98119.50
2022-09-20T05:03:45.073Z,98131.19
2022-09-20T05:06:26.870Z,98128.31
2022-09-20T05:09:19.236Z,98128.81
2022-09-20T05:12:36.430Z,98137.25
2022-09-20T05:15:37.157Z,98140.63
2022-09-20T05:18:24.730Z,98142.63
2022-09-20T05:21:34.666Z,98139.25
2022-09-20T05:24:48.591Z,98145.44
2022-09-20T05:27:41.263Z,98145.78
2022-09-20T05:30:44.792Z,98146.25
2022-09-20T05:33:57.697Z,98151.97
2022-09-20T05:36:56.502Z,98157.84
2022-09-20T05:40:02.365Z,98152.63
2022-09-20T05:42:49.328Z,98159.00
2022-09-20T05:45:47.493Z,98154.84
2022-09-20T05:49:02.096Z,98156.50
2022-09-20T05:52:09.987Z,98158.19
2022-09-20T05:55:27.464Z,98151.16
2022-09-20T05:58:46.798Z,98161.34
2022-09-20T06:01:20.087Z,98161.53
2022-09-20T06:04:17.796Z,98160.50
2022-09-20T06:06:51.628Z,98166.03
2022-09-20T06:09:34.416Z,98164.53
2022-09-20T06:12:26.194Z,98166.63
2022-09-20T06:15:17.209Z,98171.31
2022-09-20T06:18:19.031Z,98172.38
2022-09-20T06:21:24.457Z,98166.13
2022-09-20T06:24:02.415Z,98164.34
2022-09-20T06:26:37.041Z,98162.00
2022-09-20T06:29:11.876Z,98169.06
2022-09-20T06:31:39.641Z,98167.22
2022-09-20T06:34:15.529Z,98173.22
2022-09-20T06:37:13.093Z,98175.59
2022-09-20T06:40:41.743Z,98178.56
2022-09-20T06:43:10.402Z,98176.91
2022-09-20T06:45:38.252Z,98183.59
2022-09-20T06:48:06.117Z,98182.72
2022-09-20T06:50:36.295Z,98185.50
2022-09-20T06:53:04.133Z,98192.97
2022-09-20T06:55:41.310Z,98195.00
2022-09-20T06:58:09.822Z,98189.34
2022-09-20T07:00:39.863Z,98189.25
2022-09-20T07:03:08.481Z,98194.25
2022-09-20T07:05:36.479Z,98190.94
2022-09-20T07:08:04.607Z,98193.34
2022-09-20T07:10:32.577Z,98190.16
2022-09-20T07:13:02.028Z,98193.72
2022-09-20T07:15:32.769Z,98197.25
2022-09-20T07:18:00.905Z,98200.97
2022-09-20T07:20:28.730Z,98201.63
2022-09-20T07:22:56.514Z,98197.78
2022-09-20T07:25:24.352Z,98202.00
2022-09-20T07:27:52.458Z,98205.31
2022-09-20T07:30:21.558Z,98211.94
2022-09-20T07:32:50.062Z,98215.81
2022-09-20T07:35:18.115Z,98203.81
2022-09-20T07:37:45.976Z,98214.69
2022-09-20T07:40:14.768Z,98202.81
2022-09-20T07:42:42.610Z,98209.91
2022-09-20T07:45:11.231Z,98211.91
2022-09-20T07:47:41.298Z,98213.34
2022-09-20T07:50:11.302Z,98212.56
2022-09-20T07:52:39.070Z,98220.03
2022-09-20T07:55:07.421Z,98218.44
2022-09-20T07:57:37.490Z,98221.88
2022-09-20T08:00:09.272Z,98223.94
2022-09-20T08:02:42.785Z,98222.44
2022-09-20T08:05:10.592Z,98227.31
2022-09-20T08:07:39.436Z,98222.44
2022-09-20T08:10:07.936Z,98222.63
2022-09-20T08:15:24.788Z,98242.53
2022-09-20T08:17:52.540Z,98240.19
2022-09-20T08:20:20.406Z,98253.41
2022-09-20T08:23:06.227Z,98247.22
2022-09-20T08:25:36.253Z,98250.78
2022-09-20T08:28:03.995Z,98242.00
2022-09-20T08:30:31.790Z,98252.91
2022-09-20T08:32:59.657Z,98251.75
2022-09-20T08:35:29.552Z,98252.91
2022-09-20T08:39:55.985Z,98250.72
2022-09-20T08:40:45.407Z,98246.38
2022-09-20T08:43:14.097Z,98247.72
2022-09-20T08:45:42.107Z,98243.19
2022-09-20T08:48:16.422Z,98246.00
2022-09-20T08:50:44.284Z,98244.78
2022-09-20T08:53:14.880Z,98243.53
2022-09-20T08:55:48.725Z,98245.19
2022-09-20T08:58:16.949Z,98246.31
2022-09-20T09:00:47.004Z,98240.44
2022-09-20T09:03:17.958Z,98233.38
2022-09-20T09:05:48.452Z,98241.59
2022-09-20T09:08:28.264Z,98234.09
2022-09-20T09:11:09.565Z,98231.97
2022-09-20T09:13:55.787Z,98238.28
2022-09-20T09:16:34.703Z,98235.75
2022-09-20T09:19:36.310Z,98245.72
2022-09-20T09:22:06.005Z,98236.38
2022-09-20T09:24:33.794Z,98237.31
2022-09-20T09:27:17.626Z,98237.41
2022-09-20T09:29:54.184Z,98238.78
2022-09-20T09:32:32.857Z,98233.69
2022-09-20T09:35:22.370Z,98238.78
2022-09-20T09:38:02.658Z,98233.41
2022-09-20T09:40:32.684Z,98231.44
2022-09-20T09:43:03.046Z,98236.38
2022-09-20T09:45:39.042Z,98235.56
2022-09-20T09:48:21.927Z,98232.19
2022-09-20T09:50:50.246Z,98235.69
2022-09-20T09:53:23.255Z,98234.56
2022-09-20T09:56:02.143Z,98235.44
2022-09-20T09:58:45.989Z,98232.06
2022-09-20T10:01:50.749Z,98237.19
2022-09-20T10:04:35.787Z,98231.03
2022-09-20T10:07:42.044Z,98235.88
2022-09-20T10:10:33.501Z,98229.78
2022-09-20T10:13:41.248Z,98228.59
2022-09-20T10:16:29.942Z,98231.28
2022-09-20T10:19:40.874Z,98237.19
2022-09-20T10:22:33.996Z,98235.09
2022-09-20T10:25:33.459Z,98230.06
2022-09-20T10:28:31.117Z,98236.91
2022-09-20T10:31:32.376Z,98231.44
2022-09-20T10:34:25.220Z,98227.84
2022-09-20T10:37:01.113Z,98223.31
2022-09-20T10:39:39.175Z,98225.00
2022-09-20T10:43:05.003Z,98216.56
2022-09-20T10:46:30.322Z,98214.78
2022-09-20T10:49:08.769Z,98221.44
2022-09-20T10:52:25.751Z,98219.88
2022-09-20T10:55:16.119Z,98222.88
2022-09-20T10:58:20.378Z,98227.25
2022-09-20T11:01:00.854Z,98224.97
2022-09-20T11:04:02.155Z,98231.56
2022-09-20T11:07:07.457Z,98240.81
2022-09-20T11:09:42.342Z,98230.34
2022-09-20T11:12:21.221Z,98234.88
2022-09-20T11:15:12.466Z,98236.56
2022-09-20T11:17:53.481Z,98226.28
2022-09-20T11:20:33.429Z,98228.94
2022-09-20T11:23:29.265Z,98231.72
2022-09-20T11:26:05.848Z,98228.47
2022-09-20T11:28:52.168Z,98233.19
2022-09-20T11:31:36.276Z,98229.44
2022-09-20T11:34:27.155Z,98223.72
2022-09-20T11:37:03.082Z,98215.16
2022-09-20T11:39:48.617Z,98215.47
2022-09-20T11:42:27.779Z,98219.28
2022-09-20T11:44:56.201Z,98220.19
2022-09-20T11:47:55.004Z,98222.13
2022-09-20T11:50:47.339Z,98215.38
2022-09-20T11:53:41.496Z,98211.06
2022-09-20T11:56:23.549Z,98214.53
2022-09-20T11:59:00.693Z,98216.31
2022-09-20T12:01:43.086Z,98217.41
2022-09-20T12:04:32.708Z,98210.72
2022-09-20T12:07:30.150Z,98205.09
2022-09-20T12:10:34.187Z,98196.91
2022-09-20T12:13:22.832Z,98190.06
2022-09-20T12:16:06.735Z,98191.00
2022-09-20T12:18:46.004Z,98184.22
2022-09-20T12:21:18.355Z,98181.16
2022-09-20T12:23:53.572Z,98185.88
2022-09-20T12:26:21.607Z,98180.03
2022-09-20T12:28:56.216Z,98186.47
2022-09-20T12:31:29.697Z,98181.22
2022-09-20T12:34:13.321Z,98181.09
2022-09-20T12:36:46.645Z,98172.94
2022-09-20T12:39:26.299Z,98173.66
2022-09-20T12:42:12.008Z,98175.00
2022-09-20T12:44:44.794Z,98173.94
2022-09-20T12:47:12.391Z,98174.25
2022-09-20T12:50:04.500Z,98177.72
2022-09-20T12:52:58.188Z,98177.88
2022-09-20T12:55:47.195Z,98178.22
2022-09-20T12:58:14.882Z,98177.34
2022-09-20T13:01:14.086Z,98183.09
2022-09-20T13:03:44.286Z,98182.91
2022-09-20T13:06:16.423Z,98179.56
2022-09-20T13:09:09.032Z,98178.84
2022-09-20T13:12:00.962Z,98181.03
2022-09-20T13:14:31.599Z,98190.16
2022-09-20T13:17:28.089Z,98197.66
2022-09-20T13:19:57.534Z,98199.63
2022-09-20T13:22:43.641Z,98197.19
2022-09-20T13:25:15.857Z,98199.03
2022-09-20T13:28:02.074Z,98206.56
2022-09-20T13:30:33.535Z,98206.63
2022-09-20T13:33:23.349Z,98207.44
2022-09-20T13:35:58.357Z,98207.97
2022-09-20T13:38:31.812Z,98201.19
2022-09-20T13:41:09.125Z,98211.72
2022-09-20T13:43:50.081Z,98210.84
2022-09-20T13:46:30.649Z,98213.31
2022-09-20T13:49:22.188Z,98212.59
2022-09-20T13:51:50.935Z,98219.63
2022-09-20T13:54:32.045Z,98221.78
2022-09-20T13:57:06.612Z,98215.66
2022-09-20T13:59:43.169Z,98211.88
2022-09-20T14:02:27.786Z,98205.38
2022-09-20T14:05:00.522Z,98201.91
2022-09-20T14:07:29.556Z,98196.88
2022-09-20T14:09:59.022Z,98194.59
2022-09-20T14:12:27.918Z,98186.84
2022-09-20T14:14:56.541Z,98191.47
2022-09-20T14:17:25.893Z,98193.88
2022-09-20T14:19:55.390Z,98182.94
2022-09-20T14:22:29.036Z,98185.97
2022-09-20T14:25:18.746Z,98181.06
2022-09-20T14:27:46.513Z,98182.00
2022-09-20T14:30:36.444Z,98186.34
2022-09-20T14:33:11.744Z,98184.63
2022-09-20T14:35:51.535Z,98180.56
2022-09-20T14:38:24.735Z,98184.69
2022-09-20T14:40:52.929Z,98189.13
2022-09-20T14:43:34.786Z,98184.78
2022-09-20T14:46:10.011Z,98186.34
2022-09-20T14:48:42.859Z,98183.69
2022-09-20T14:51:25.391Z,98186.09
2022-09-20T14:54:13.063Z,98183.09
2022-09-20T14:56:57.438Z,98185.09
2022-09-20T14:59:37.408Z,98184.47
2022-09-20T15:02:15.644Z,98181.59
2022-09-20T15:04:59.310Z,98185.28
2022-09-20T15:07:27.214Z,98179.44
2022-09-20T15:09:54.940Z,98179.41
2022-09-20T15:12:22.663Z,98189.59
2022-09-20T15:14:50.440Z,98186.06
2022-09-20T15:17:21.494Z,98184.78
2022-09-20T15:19:50.221Z,98182.13
2022-09-20T15:22:17.942Z,98193.22
2022-09-20T15:24:45.693Z,98181.25
2022-09-20T15:27:14.037Z,98180.03
2022-09-20T15:29:41.778Z,98184.59
2022-09-20T15:32:12.576Z,98181.50
2022-09-20T15:34:40.308Z,98185.66
2022-09-20T15:37:08.019Z,98183.22
2022-09-20T15:39:35.802Z,98180.22
2022-09-20T15:42:04.041Z,98177.81
2022-09-20T15:44:32.769Z,98178.88
2022-09-20T15:47:01.598Z,98173.69
2022-09-20T15:49:31.165Z,98168.22
2022-09-20T15:51:58.869Z,98165.16
2022-09-20T15:54:26.811Z,98172.41
2022-09-20T15:56:54.526Z,98167.78
2022-09-20T15:59:23.412Z,98165.09
2022-09-20T16:01:51.760Z,98174.50
2022-09-20T16:04:20.506Z,98164.50
2022-09-20T16:06:50.194Z,98174.81
2022-09-20T16:09:18.880Z,98174.91
2022-09-20T16:11:48.409Z,98178.81
2022-09-20T16:14:16.164Z,98180.50
2022-09-20T16:16:43.986Z,98178.69
2022-09-20T16:19:17.423Z,98180.88
2022-09-20T16:21:58.636Z,98185.41
2022-09-20T16:24:31.057Z,98189.13
2022-09-20T16:27:01.309Z,98183.78
2022-09-20T16:29:30.697Z,98185.91
2022-09-20T16:32:00.210Z,98188.22
2022-09-20T16:34:36.570Z,98192.53
2022-09-20T16:37:10.406Z,98190.59
2022-09-20T16:39:38.472Z,98192.25
2022-09-20T16:42:09.035Z,98192.00
2022-09-20T16:44:39.325Z,98199.44
2022-09-20T16:47:11.378Z,98204.22
2022-09-20T16:49:39.715Z,98198.06
2022-09-20T16:52:09.333Z,98201.94
2022-09-20T16:54:37.200Z,98210.63
2022-09-20T16:57:05.257Z,98204.78
2022-09-20T16:59:33.321Z,98209.88
2022-09-20T17:02:01.223Z,98209.34
2022-09-20T17:04:29.051Z,98206.28
2022-09-20T17:06:56.850Z,98213.63
2022-09-20T17:09:24.613Z,98205.56
2022-09-20T17:11:52.926Z,98212.41
2022-09-20T17:14:21.951Z,98216.78
2022-09-20T17:16:50.428Z,98217.59
2022-09-20T17:19:20.826Z,98225.72
2022-09-20T17:21:51.109Z,98224.81
2022-09-20T17:24:21.688Z,98228.25
2022-09-20T17:26:50.885Z,98226.13
2022-09-20T17:29:20.467Z,98226.56
2022-09-20T17:31:55.519Z,98237.00
2022-09-20T17:34:25.452Z,98235.16
2022-09-20T17:36:55.030Z,98233.31
2022-09-20T17:39:23.023Z,98235.72
2022-09-20T17:41:51.428Z,98241.41
2022-09-20T17:44:19.364Z,98248.25
2022-09-20T17:46:50.006Z,98246.31
2022-09-20T17:49:21.597Z,98245.66
2022-09-20T17:51:52.598Z,98244.81
2022-09-20T17:54:22.031Z,98248.69
2022-09-20T17:56:53.642Z,98243.50
2022-09-20T17:59:21.722Z,98252.09
2022-09-20T18:01:51.225Z,98251.94
2022-09-20T18:04:21.073Z,98257.66
2022-09-20T18:06:52.565Z,98256.19
2022-09-20T18:09:24.784Z,98262.38
2022-09-20T18:11:55.148Z,98263.22
2022-09-20T18:14:28.433Z,98267.75
2022-09-20T18:17:01.219Z,98273.78
2022-09-20T18:19:33.568Z,98280.34
2022-09-20T18:22:02.873Z,98282.72
2022-09-20T18:24:31.289Z,98276.19
2022-09-20T18:27:00.710Z,98284.63
2022-09-20T18:29:29.423Z,98288.00
2022-09-20T18:31:59.677Z,98290.22
2022-09-20T18:34:32.186Z,98294.59
2022-09-20T18:37:01.387Z,98292.44
2022-09-20T18:39:33.434Z,98289.28
2022-09-20T18:42:02.630Z,98298.88
2022-09-20T18:44:33.987Z,98301.88
2022-09-20T18:47:04.824Z,98301.41
2022-09-20T18:49:33.424Z,98298.75
2022-09-20T18:52:02.439Z,98315.00
2022-09-20T18:54:33.417Z,98312.19
2022-09-20T18:57:02.032Z,98316.25
2022-09-20T18:59:30.119Z,98323.94
2022-09-20T19:02:53.046Z,98323.44
2022-09-20T19:05:35.145Z,98325.44
2022-09-20T19:08:47.214Z,98322.63
2022-09-20T19:11:32.976Z,98334.34
2022-09-20T19:14:19.252Z,98329.84
2022-09-20T19:16:54.885Z,98336.22
2022-09-20T19:19:47.796Z,98340.91
2022-09-20T19:22:26.997Z,98344.75
2022-09-20T19:25:06.768Z,98353.47
2022-09-20T19:27:35.341Z,98354.81
2022-09-20T19:30:04.261Z,98357.66
2022-09-20T19:32:32.481Z,98363.03
2022-09-20T19:35:01.766Z,98365.19
2022-09-20T19:38:15.594Z,98365.03
2022-09-20T19:41:02.768Z,98362.19
2022-09-20T19:43:40.497Z,98368.03
2022-09-20T19:46:45.250Z,98370.88
2022-09-20T19:49:22.520Z,98371.06
2022-09-20T19:51:50.874Z,98366.03
2022-09-20T19:54:19.092Z,98371.72
2022-09-20T19:56:59.568Z,98370.88
2022-09-20T19:59:28.824Z,98372.56
2022-09-20T20:01:57.668Z,98372.06
2022-09-20T20:04:26.114Z,98365.88
2022-09-20T20:07:36.703Z,98367.03
2022-09-20T20:10:28.135Z,98366.88
2022-09-20T20:13:25.216Z,98373.72
2022-09-20T20:16:07.784Z,98375.41
2022-09-20T20:18:57.486Z,98372.38
2022-09-20T20:21:49.854Z,98370.38
2022-09-20T20:24:34.606Z,98377.56
2022-09-20T20:27:02.316Z,98377.06
2022-09-20T20:29:30.308Z,98375.56
2022-09-20T20:31:58.090Z,98379.59
2022-09-20T20:34:26.733Z,98380.72
2022-09-20T20:37:00.862Z,98386.44
2022-09-20T20:39:29.954Z,98384.06
2022-09-20T20:42:02.796Z,98387.06
2022-09-20T20:44:31.804Z,98387.72
2022-09-20T20:46:59.654Z,98389.22
2022-09-20T20:49:27.740Z,98389.19
2022-09-20T20:51:56.531Z,98390.00
2022-09-20T20:54:25.164Z,98392.69
2022-09-20T20:56:52.874Z,98391.34
2022-09-20T20:59:20.638Z,98391.50
2022-09-20T21:01:48.445Z,98384.66
2022-09-20T21:04:16.950Z,98394.66
2022-09-20T21:06:45.024Z,98390.31
2022-09-20T21:09:13.569Z,98390.13
2022-09-20T21:11:46.547Z,98387.94
2022-09-20T21:14:15.846Z,98383.59
2022-09-20T21:16:43.741Z,98392.09
2022-09-20T21:19:18.275Z,98388.22
2022-09-20T21:21:47.966Z,98394.00
2022-09-20T21:24:19.759Z,98398.81
2022-09-20T21:26:48.546Z,98389.31
2022-09-20T21:29:17.075Z,98386.28
2022-09-20T21:31:46.740Z,98393.09
2022-09-20T21:34:15.966Z,98385.53
2022-09-20T21:36:47.180Z,98390.38
2022-09-20T21:39:14.955Z,98385.50
2022-09-20T21:41:42.804Z,98380.31
2022-09-20T21:44:10.786Z,98388.34
2022-09-20T21:46:41.419Z,98387.66
2022-09-20T21:49:11.832Z,98397.50
2022-09-20T21:51:42.638Z,98395.16
2022-09-20T21:54:11.255Z,98394.63
2022-09-20T21:56:41.025Z,98393.44
2022-09-20T21:59:09.474Z,98399.09
2022-09-20T22:01:40.295Z,98397.38
2022-09-20T22:04:11.235Z,98387.72
2022-09-20T22:06:45.218Z,98398.41
2022-09-20T22:09:15.112Z,98390.53
2022-09-20T22:11:46.304Z,98395.34
2022-09-20T22:14:16.656Z,98390.50
2022-09-20T22:16:46.191Z,98390.09
2022-09-20T22:19:17.136Z,98384.22
2022-09-20T22:21:48.341Z,98383.56
2022-09-20T22:24:17.309Z,98374.72
2022-09-20T22:26:48.243Z,98377.38
2022-09-20T22:29:17.626Z,98379.53
2022-09-20T22:31:47.846Z,98377.00
2022-09-20T22:34:20.023Z,98378.16
2022-09-20T22:36:48.302Z,98381.13
2022-09-20T22:39:17.255Z,98376.94
2022-09-20T22:41:47.857Z,98376.59
2022-09-20T22:44:15.987Z,98378.41
2022-09-20T22:46:44.436Z,98369.56
2022-09-20T22:49:12.244Z,98382.22
2022-09-20T22:51:40.190Z,98381.84
2022-09-20T22:54:10.934Z,98389.16
2022-09-20T22:56:42.462Z,98387.66
2022-09-20T22:59:13.206Z,98389.50
2022-09-20T23:01:46.543Z,98377.94
2022-09-20T23:04:17.759Z,98382.59
2022-09-20T23:06:54.579Z,98382.06
2022-09-20T23:09:28.294Z,98383.22
2022-09-20T23:11:56.527Z,98385.50
2022-09-20T23:14:24.292Z,98385.00
2022-09-20T23:16:52.968Z,98383.44
2022-09-20T23:19:20.826Z,98388.97
2022-09-20T23:21:48.605Z,98380.22
2022-09-20T23:24:16.778Z,98388.41
2022-09-20T23:26:45.260Z,98388.25
2022-09-20T23:29:16.341Z,98387.13
2022-09-20T23:31:47.130Z,98391.63
2022-09-20T23:34:16.264Z,98390.91
2022-09-20T23:36:45.004Z,98390.22
2022-09-20T23:39:13.166Z,98385.91
2022-09-20T23:41:41.825Z,98381.72
2022-09-20T23:44:10.211Z,98387.19
2022-09-20T23:46:39.239Z,98391.97
2022-09-20T23:49:09.321Z,98388.75
2022-09-20T23:51:37.472Z,98383.88
2022-09-20T23:54:05.775Z,98386.84
2022-09-20T23:56:33.820Z,98384.31
2022-09-20T23:59:01.597Z,98393.47
